Time;durP1;ratioP1;P1;durP2;ratioP2;P2;SDS_P1;SDS_P2;PMS_P1;PMS_P2;Temp;Humidity;BMP_temperature;BMP_pressure;BME280_temperature;BME280_humidity;BME280_pressure;Samples;Min_cycle;Max_cycle;Signal;HPM_P1;HPM_P2
2021/12/10 00:00:18;;;;;;;64.40;42.75;;;4.70;99.90;;;;;;5118338;27;20050;-72
2021/12/10 00:02:46;;;;;;;61.17;42.72;;;4.70;99.90;;;;;;5124408;27;20035;-72
2021/12/10 00:05:33;;;;;;;64.40;41.85;;;4.80;99.90;;;;;;5115647;27;20649;-72
2021/12/10 00:07:59;;;;;;;59.70;42.55;;;4.80;99.90;;;;;;5120762;27;20055;-72
2021/12/10 00:10:35;;;;;;;61.92;41.30;;;4.80;99.90;;;;;;5126316;27;20362;-72
2021/12/10 00:13:05;;;;;;;60.70;42.03;;;4.80;99.90;;;;;;5116914;27;20079;-72
2021/12/10 00:15:31;;;;;;;60.67;40.42;;;4.80;99.90;;;;;;5129576;27;20054;-72
2021/12/10 00:18:00;;;;;;;65.28;42.95;;;4.80;99.90;;;;;;5116536;27;20047;-72
2021/12/10 00:20:29;;;;;;;61.17;42.03;;;4.80;99.90;;;;;;5126868;27;20050;-72
2021/12/10 00:23:03;;;;;;;65.75;42.13;;;4.80;99.90;;;;;;5128745;27;20046;-72
2021/12/10 00:25:38;;;;;;;65.35;42.53;;;4.80;99.90;;;;;;5126874;27;20043;-72
2021/12/10 00:28:15;;;;;;;58.40;42.15;;;4.80;99.90;;;;;;5127988;27;20036;-72
2021/12/10 00:30:59;;;;;;;64.63;42.10;;;4.80;99.90;;;;;;5116359;27;20058;-72
2021/12/10 00:33:26;;;;;;;65.88;42.70;;;4.80;99.90;;;;;;5131796;27;20039;-72
2021/12/10 00:35:53;;;;;;;68.75;42.40;;;4.80;99.90;;;;;;5120045;27;20044;-72
2021/12/10 00:38:21;;;;;;;61.97;42.38;;;4.80;99.90;;;;;;5123614;27;20047;-72
2021/12/10 00:40:46;;;;;;;;;;;4.80;99.90;;;;;;5128494;27;20043;-72
2021/12/10 00:43:12;;;;;;;56.33;39.97;;;4.80;99.90;;;;;;5128914;27;19927;-72
2021/12/10 00:45:38;;;;;;;55.72;39.05;;;4.80;99.90;;;;;;5120524;27;20067;-72
2021/12/10 00:48:04;;;;;;;55.78;39.60;;;4.80;99.90;;;;;;5121307;27;20410;-72
2021/12/10 00:50:35;;;;;;;64.68;42.67;;;4.80;99.90;;;;;;5125893;27;20066;-71
2021/12/10 00:53:01;;;;;;;64.05;41.67;;;4.90;99.90;;;;;;5115881;27;20048;-72
2021/12/10 00:55:27;;;;;;;55.00;38.05;;;4.80;99.90;;;;;;5121119;27;20069;-72
2021/12/10 00:57:54;;;;;;;58.05;38.75;;;4.80;99.90;;;;;;5114656;27;20039;-72
2021/12/10 01:00:28;;;;;;;52.80;36.45;;;4.80;99.90;;;;;;5120862;27;20040;-72
2021/12/10 01:02:54;;;;;;;49.72;37.38;;;4.90;99.90;;;;;;5128582;27;20393;-72
2021/12/10 01:05:20;;;;;;;53.22;34.00;;;4.90;99.90;;;;;;5126614;27;20046;-72
2021/12/10 01:07:47;;;;;;;51.40;34.75;;;4.90;99.90;;;;;;5121192;27;20035;-71
2021/12/10 01:10:22;;;;;;;51.38;32.67;;;4.90;99.90;;;;;;5130572;27;20127;-72
2021/12/10 01:12:51;;;;;;;47.30;33.10;;;4.90;99.90;;;;;;5129450;27;20392;-72
2021/12/10 01:15:47;;;;;;;43.28;31.80;;;4.90;99.90;;;;;;5115450;27;20035;-72
2021/12/10 01:23:48;;;;;;;47.65;34.15;;;4.90;99.90;;;;;;5156975;27;20047;-72
2021/12/10 01:24:17;;;;;;;51.67;34.83;;;4.90;99.90;;;;;;5127316;27;20410;-72
2021/12/10 01:29:16;;;;;;;44.03;31.27;;;4.90;99.90;;;;;;5117539;27;20469;-71
2021/12/10 01:31:43;;;;;;;40.47;30.45;;;4.90;99.90;;;;;;5127154;27;20464;-71
2021/12/10 01:34:11;;;;;;;43.55;31.30;;;4.90;99.90;;;;;;5122805;27;20065;-71
2021/12/10 01:36:37;;;;;;;40.00;30.10;;;4.90;99.90;;;;;;5109012;27;20050;-71
2021/12/10 01:39:10;;;;;;;36.57;28.37;;;4.90;99.90;;;;;;5126493;27;20111;-72
2021/12/10 01:41:39;;;;;;;39.63;28.95;;;4.90;99.90;;;;;;5119096;27;20316;-71
2021/12/10 01:44:15;;;;;;;43.90;30.00;;;4.90;99.90;;;;;;5115161;27;20096;-72
2021/12/10 01:46:45;;;;;;;45.22;30.40;;;4.90;99.90;;;;;;5113258;27;20108;-72
2021/12/10 01:49:12;;;;;;;33.90;25.75;;;4.90;99.90;;;;;;5112535;27;20474;-72
2021/12/10 01:51:40;;;;;;;39.67;29.05;;;4.90;99.90;;;;;;5127963;27;20520;-72
2021/12/10 01:54:12;;;;;;;37.85;28.70;;;4.90;99.90;;;;;;5125231;27;20127;-71
2021/12/10 01:56:40;;;;;;;40.97;29.25;;;4.90;99.90;;;;;;5117648;27;20052;-72
2021/12/10 01:59:08;;;;;;;38.58;28.83;;;4.90;99.90;;;;;;5151842;27;20059;-72
2021/12/10 02:01:41;;;;;;;41.80;29.70;;;4.90;99.90;;;;;;5112825;27;20435;-72
2021/12/10 02:04:09;;;;;;;45.30;29.27;;;4.90;99.90;;;;;;5123950;27;20048;-72
2021/12/10 02:06:35;;;;;;;;;;;4.90;99.90;;;;;;5123320;27;20045;-71
2021/12/10 02:09:02;;;;;;;37.90;27.20;;;4.80;99.90;;;;;;5121348;27;20014;-71
2021/12/10 02:11:27;;;;;;;39.85;25.70;;;4.90;99.90;;;;;;5119319;27;20122;-72
2021/12/10 02:13:53;;;;;;;37.00;26.30;;;4.90;99.90;;;;;;5150777;27;20568;-71
2021/12/10 02:16:18;;;;;;;41.20;27.92;;;4.80;99.90;;;;;;5120817;27;20067;-72
2021/12/10 02:18:45;;;;;;;40.03;25.50;;;4.90;99.90;;;;;;5127123;27;20034;-71
2021/12/10 02:21:10;;;;;;;40.60;24.48;;;4.90;99.90;;;;;;5119061;27;20130;-72
2021/12/10 02:23:43;;;;;;;39.50;23.52;;;4.90;99.90;;;;;;5123930;27;20119;-72
2021/12/10 02:26:11;;;;;;;36.90;22.98;;;4.90;99.90;;;;;;5114513;27;20035;-72
2021/12/10 02:28:38;;;;;;;33.40;22.73;;;4.90;99.90;;;;;;5120640;27;20566;-72
2021/12/10 02:31:05;;;;;;;32.38;23.17;;;4.90;99.90;;;;;;5125595;27;20418;-72
2021/12/10 02:33:31;;;;;;;35.05;22.52;;;4.80;99.90;;;;;;5127319;27;20414;-72
2021/12/10 02:35:57;;;;;;;34.45;23.63;;;4.90;99.90;;;;;;5149555;27;20059;-72
2021/12/10 02:38:23;;;;;;;36.47;24.52;;;4.80;99.90;;;;;;5127684;27;20121;-72
2021/12/10 02:40:50;;;;;;;35.45;24.13;;;4.90;99.90;;;;;;5124072;27;20051;-72
2021/12/10 02:43:19;;;;;;;34.75;25.92;;;4.80;99.90;;;;;;5126203;27;20035;-72
2021/12/10 02:45:49;;;;;;;36.03;25.08;;;4.80;99.90;;;;;;5116176;27;20062;-72
2021/12/10 02:48:15;;;;;;;37.80;26.17;;;4.80;99.90;;;;;;5126756;27;20051;-72
2021/12/10 02:50:43;;;;;;;38.60;26.80;;;4.80;99.90;;;;;;5116049;27;20031;-72
2021/12/10 02:53:09;;;;;;;40.75;27.92;;;4.80;99.90;;;;;;5111969;27;20055;-72
2021/12/10 02:55:36;;;;;;;36.35;26.55;;;4.80;99.90;;;;;;5116490;27;20418;-72
2021/12/10 02:58:06;;;;;;;38.08;26.88;;;4.80;99.90;;;;;;5125857;27;20043;-72
2021/12/10 03:00:40;;;;;;;38.08;27.90;;;4.80;99.90;;;;;;5126313;27;20718;-71
2021/12/10 03:03:06;;;;;;;41.78;29.10;;;4.80;99.90;;;;;;5107510;27;20067;-71
2021/12/10 03:05:31;;;;;;;40.58;28.35;;;4.80;99.90;;;;;;5115264;27;20039;-72
2021/12/10 03:07:57;;;;;;;37.42;27.02;;;4.70;99.90;;;;;;5116934;27;20035;-72
2021/12/10 03:10:28;;;;;;;40.35;27.77;;;4.70;99.90;;;;;;5124457;27;20698;-71
2021/12/10 03:12:54;;;;;;;43.42;28.52;;;4.70;99.90;;;;;;5144578;27;20553;-72
2021/12/10 03:15:23;;;;;;;36.47;28.20;;;4.60;99.90;;;;;;5118205;27;20072;-72
2021/12/10 03:17:50;;;;;;;39.05;28.20;;;4.60;99.90;;;;;;5126120;27;20301;-71
2021/12/10 03:20:18;;;;;;;42.03;29.53;;;4.60;99.90;;;;;;5112978;27;20165;-71
2021/12/10 03:22:45;;;;;;;41.80;29.40;;;4.60;99.90;;;;;;5121708;27;20233;-72
2021/12/10 03:25:14;;;;;;;39.37;29.50;;;4.50;99.90;;;;;;5117207;27;20047;-72
2021/12/10 03:27:41;;;;;;;40.70;29.75;;;4.60;99.90;;;;;;5112090;27;20410;-72
2021/12/10 03:30:10;;;;;;;38.83;30.33;;;4.60;99.90;;;;;;5124496;27;20035;-72
2021/12/10 03:32:37;;;;;;;38.28;29.88;;;4.60;99.90;;;;;;5119552;27;20055;-71
2021/12/10 03:35:08;;;;;;;;;;;4.60;99.90;;;;;;5115256;27;20366;-72
2021/12/10 03:37:35;;;;;;;36.42;28.27;;;4.60;99.90;;;;;;5118186;27;19924;-71
2021/12/10 03:40:01;;;;;;;38.47;28.10;;;4.60;99.90;;;;;;5119132;27;20043;-72
2021/12/10 03:42:27;;;;;;;36.47;27.58;;;4.60;99.90;;;;;;5122667;27;20121;-72
2021/12/10 03:44:53;;;;;;;43.72;29.60;;;4.60;99.90;;;;;;5121732;27;20628;-71
2021/12/10 03:47:18;;;;;;;36.08;27.60;;;4.60;99.90;;;;;;5122762;27;20054;-72
2021/12/10 03:49:44;;;;;;;38.95;28.80;;;4.60;99.90;;;;;;5115076;28;20048;-72
2021/12/10 03:52:10;;;;;;;35.60;27.90;;;4.60;99.90;;;;;;5128251;27;20039;-72
2021/12/10 03:54:41;;;;;;;36.45;29.67;;;4.60;99.90;;;;;;5121918;28;20494;-72
2021/12/10 03:57:08;;;;;;;33.40;28.38;;;4.60;99.90;;;;;;5139705;27;20043;-72
2021/12/10 03:59:36;;;;;;;35.67;28.40;;;4.60;99.90;;;;;;5124192;27;20074;-72
2021/12/10 04:02:03;;;;;;;34.75;28.30;;;4.60;99.90;;;;;;5127680;27;20595;-72
2021/12/10 04:04:37;;;;;;;36.78;28.08;;;4.50;99.90;;;;;;5120365;27;20063;-71
2021/12/10 04:07:06;;;;;;;34.00;28.88;;;4.60;99.90;;;;;;5117000;28;20039;-72
2021/12/10 04:09:32;;;;;;;32.75;27.67;;;4.50;99.90;;;;;;5108064;28;20076;-72
2021/12/10 04:11:58;;;;;;;34.95;27.98;;;4.60;99.90;;;;;;5120449;28;20076;-72
2021/12/10 04:14:23;;;;;;;35.65;28.90;;;4.50;99.90;;;;;;5122330;28;20036;-72
2021/12/10 04:16:55;;;;;;;31.63;27.98;;;4.50;99.90;;;;;;5117157;28;20199;-72
2021/12/10 04:19:22;;;;;;;36.17;27.08;;;4.50;99.90;;;;;;5123183;28;20058;-71
2021/12/10 04:21:48;;;;;;;32.30;26.45;;;4.50;99.90;;;;;;5122409;27;20051;-72
2021/12/10 04:24:18;;;;;;;32.83;25.90;;;4.50;99.90;;;;;;5119755;28;20032;-72
2021/12/10 04:26:45;;;;;;;27.63;24.23;;;4.50;99.90;;;;;;5120264;27;20064;-72
2021/12/10 04:29:10;;;;;;;27.20;24.13;;;4.40;99.90;;;;;;5123816;28;20075;-71
2021/12/10 04:31:37;;;;;;;31.35;24.02;;;4.40;99.90;;;;;;5127267;27;20442;-71
2021/12/10 04:34:03;;;;;;;25.55;22.85;;;4.40;99.90;;;;;;5125778;28;20092;-71
2021/12/10 04:36:29;;;;;;;26.75;21.85;;;4.30;99.90;;;;;;5122771;27;20099;-72
2021/12/10 04:38:55;;;;;;;24.00;20.80;;;4.30;99.90;;;;;;5122959;27;20027;-72
2021/12/10 04:41:21;;;;;;;26.02;21.08;;;4.30;99.90;;;;;;5118779;28;20118;-72
2021/12/10 04:43:47;;;;;;;23.27;20.65;;;4.20;99.90;;;;;;5123733;28;20118;-72
2021/12/10 04:46:14;;;;;;;23.20;20.27;;;4.20;99.90;;;;;;5128055;27;20059;-72
2021/12/10 04:48:53;;;;;;;22.35;19.95;;;4.10;99.90;;;;;;5125207;27;20040;-71
2021/12/10 04:51:22;;;;;;;24.20;20.63;;;4.10;99.90;;;;;;5111357;28;20066;-72
2021/12/10 04:53:49;;;;;;;21.50;18.67;;;4.10;99.90;;;;;;5127317;27;20616;-72
2021/12/10 04:56:15;;;;;;;23.15;18.23;;;4.00;99.90;;;;;;5130711;27;20042;-72
2021/12/10 04:58:41;;;;;;;24.38;19.25;;;4.00;99.90;;;;;;5128783;27;20122;-71
2021/12/10 05:01:07;;;;;;;20.90;18.33;;;3.90;99.90;;;;;;5123580;27;20151;-71
2021/12/10 05:03:33;;;;;;;22.00;18.95;;;3.90;99.90;;;;;;5111483;27;20050;-71
2021/12/10 05:06:03;;;;;;;21.20;18.33;;;3.90;99.90;;;;;;5110521;27;20043;-71
2021/12/10 05:08:31;;;;;;;21.27;18.27;;;3.90;99.90;;;;;;5129858;27;20082;-71
2021/12/10 05:10:57;;;;;;;21.15;18.92;;;3.90;99.90;;;;;;5126258;27;21210;-71
2021/12/10 05:13:22;;;;;;;22.02;18.38;;;3.80;99.90;;;;;;5129736;27;20063;-72
2021/12/10 05:15:55;;;;;;;21.30;19.00;;;3.80;99.90;;;;;;5128348;27;20051;-72
2021/12/10 05:18:21;;;;;;;22.17;18.83;;;3.80;99.90;;;;;;5128290;27;20397;-72
2021/12/10 05:20:48;;;;;;;20.38;17.58;;;3.80;99.90;;;;;;5117641;27;20043;-72
2021/12/10 05:23:15;;;;;;;23.23;18.88;;;3.70;99.90;;;;;;5128819;27;20046;-72
2021/12/10 05:25:42;;;;;;;21.45;19.15;;;3.70;99.90;;;;;;5127141;27;20088;-72
2021/12/10 05:28:08;;;;;;;22.50;18.52;;;3.70;99.90;;;;;;5129384;27;20055;-72
2021/12/10 05:30:34;;;;;;;20.42;17.30;;;3.70;99.90;;;;;;5127826;27;20035;-72
2021/12/10 05:33:02;;;;;;;23.02;18.95;;;3.70;99.90;;;;;;5125136;27;20043;-72
2021/12/10 05:35:29;;;;;;;20.30;18.02;;;3.70;99.90;;;;;;5120300;27;20036;-71
2021/12/10 05:37:55;;;;;;;20.83;18.05;;;3.60;99.90;;;;;;5128511;27;20039;-72
2021/12/10 05:40:22;;;;;;;21.90;17.90;;;3.60;99.90;;;;;;5122136;27;20494;-72
2021/12/10 05:42:49;;;;;;;21.73;18.05;;;3.60;99.90;;;;;;5120207;27;20039;-71
2021/12/10 05:45:17;;;;;;;21.27;17.95;;;3.60;99.90;;;;;;5121074;27;20035;-71
2021/12/10 05:47:44;;;;;;;21.77;18.20;;;3.60;99.90;;;;;;5123583;27;20076;-72
2021/12/10 05:50:12;;;;;;;23.15;17.75;;;3.60;99.90;;;;;;5111626;27;20047;-72
2021/12/10 05:52:37;;;;;;;22.48;16.85;;;3.60;99.90;;;;;;5119700;27;20041;-72
2021/12/10 05:55:04;;;;;;;19.20;17.17;;;3.50;99.90;;;;;;5122770;27;20560;-72
2021/12/10 05:57:30;;;;;;;20.02;17.45;;;3.50;99.90;;;;;;5129237;27;20087;-72
2021/12/10 05:59:56;;;;;;;21.00;17.42;;;3.50;99.90;;;;;;5119959;27;20086;-72
2021/12/10 06:02:21;;;;;;;19.48;16.48;;;3.50;99.90;;;;;;5127469;27;20067;-71
2021/12/10 06:04:47;;;;;;;20.65;17.15;;;3.50;99.90;;;;;;5126568;27;20039;-72
2021/12/10 06:07:13;;;;;;;19.67;17.30;;;3.50;99.90;;;;;;5129904;27;20064;-71
2021/12/10 06:09:39;;;;;;;21.58;17.08;;;3.50;99.90;;;;;;5125858;27;20039;-72
2021/12/10 06:12:05;;;;;;;21.75;16.88;;;3.40;99.90;;;;;;5109844;27;20081;-72
2021/12/10 06:14:31;;;;;;;20.77;16.48;;;3.40;99.90;;;;;;5119595;27;20709;-72
2021/12/10 06:16:57;;;;;;;20.00;16.33;;;3.40;99.90;;;;;;5121944;27;20035;-71
2021/12/10 06:19:23;;;;;;;19.55;16.17;;;3.40;99.90;;;;;;5118618;27;20050;-72
2021/12/10 06:21:49;;;;;;;18.40;15.77;;;3.40;99.90;;;;;;5129372;27;20103;-72
2021/12/10 06:24:15;;;;;;;18.40;15.55;;;3.40;99.90;;;;;;5129836;27;20481;-72
2021/12/10 06:26:41;;;;;;;18.27;15.65;;;3.40;99.90;;;;;;5128052;27;20114;-72
2021/12/10 06:29:07;;;;;;;21.98;15.70;;;3.40;99.90;;;;;;5129352;27;20424;-72
2021/12/10 06:31:34;;;;;;;18.08;15.27;;;3.40;99.90;;;;;;5130003;27;20039;-72
2021/12/10 06:34:00;;;;;;;21.25;15.02;;;3.40;99.90;;;;;;5127731;27;20046;-72
2021/12/10 06:36:27;;;;;;;21.73;15.00;;;3.40;99.90;;;;;;5115948;27;20047;-72
2021/12/10 06:38:53;;;;;;;17.42;15.18;;;3.30;99.90;;;;;;5129352;27;20069;-72
2021/12/10 06:41:19;;;;;;;19.25;15.02;;;3.30;99.90;;;;;;5111538;27;20062;-72
2021/12/10 06:43:45;;;;;;;20.77;15.23;;;3.30;99.90;;;;;;5113353;27;20050;-72
2021/12/10 06:46:12;;;;;;;16.40;13.88;;;3.30;99.90;;;;;;5120868;27;20047;-72
2021/12/10 06:48:38;;;;;;;17.45;13.88;;;3.30;99.90;;;;;;5126842;27;20046;-74
2021/12/10 06:51:09;;;;;;;16.00;13.38;;;3.30;99.90;;;;;;5126005;27;20085;-70
2021/12/10 06:53:41;;;;;;;16.40;13.48;;;3.30;99.90;;;;;;5121729;27;20104;-70
2021/12/10 06:56:07;;;;;;;17.25;14.15;;;3.20;99.90;;;;;;5140899;27;20072;-70
2021/12/10 06:58:35;;;;;;;15.75;12.70;;;3.20;99.90;;;;;;5109911;27;20088;-70
2021/12/10 07:01:17;;;;;;;17.67;13.13;;;3.20;99.90;;;;;;5124666;27;20684;-70
2021/12/10 07:03:45;;;;;;;18.10;13.23;;;3.20;99.90;;;;;;5112121;27;20049;-70
2021/12/10 07:06:11;;;;;;;17.85;13.77;;;3.20;99.90;;;;;;5127398;27;20043;-70
2021/12/10 07:08:40;;;;;;;15.75;12.80;;;3.20;99.90;;;;;;5126177;27;20049;-70
2021/12/10 07:11:09;;;;;;;17.08;13.63;;;3.20;99.90;;;;;;5125462;27;20043;-70
2021/12/10 07:13:37;;;;;;;18.88;13.95;;;3.20;99.90;;;;;;5123706;27;20065;-70
2021/12/10 07:16:07;;;;;;;18.23;12.32;;;3.20;99.90;;;;;;5113980;27;20054;-70
2021/12/10 07:18:33;;;;;;;16.52;13.38;;;3.10;99.90;;;;;;5159698;27;20401;-70
2021/12/10 07:20:59;;;;;;;17.35;12.65;;;3.20;99.90;;;;;;5126907;27;20154;-70
2021/12/10 07:23:25;;;;;;;19.02;12.05;;;3.20;99.90;;;;;;5111085;27;20039;-70
2021/12/10 07:25:51;;;;;;;16.63;12.63;;;3.20;99.90;;;;;;5126666;27;20069;-70
2021/12/10 07:28:19;;;;;;;17.38;13.25;;;3.10;99.90;;;;;;5127422;27;20042;-70
2021/12/10 07:30:48;;;;;;;17.10;13.15;;;3.10;99.90;;;;;;5117207;27;20566;-70
2021/12/10 07:33:16;;;;;;;16.75;12.45;;;3.10;99.90;;;;;;5107267;28;20493;-70
2021/12/10 07:35:45;;;;;;;16.00;12.88;;;3.10;99.90;;;;;;5126485;27;20039;-69
2021/12/10 07:38:11;;;;;;;15.55;13.15;;;3.10;99.90;;;;;;5127072;27;20096;-69
2021/12/10 07:40:41;;;;;;;16.67;13.00;;;3.10;99.90;;;;;;5143574;27;20051;-70
2021/12/10 07:43:07;;;;;;;18.63;13.40;;;3.10;99.90;;;;;;5123541;27;20061;-70
2021/12/10 07:45:35;;;;;;;16.40;13.40;;;3.00;99.90;;;;;;5120552;27;20054;-71
2021/12/10 07:48:07;;;;;;;14.18;11.88;;;3.00;99.90;;;;;;5125807;27;20126;-70
2021/12/10 07:50:37;;;;;;;17.38;12.57;;;3.10;99.90;;;;;;5123778;28;20520;-70
2021/12/10 07:53:03;;;;;;;17.35;13.43;;;3.10;99.90;;;;;;5126310;27;20088;-70
2021/12/10 07:55:32;;;;;;;14.50;12.40;;;3.10;99.90;;;;;;5126977;27;20054;-70
2021/12/10 07:58:00;;;;;;;19.55;13.57;;;3.10;99.90;;;;;;5121264;27;20039;-71
2021/12/10 08:00:28;;;;;;;17.10;12.85;;;3.00;99.90;;;;;;5109604;28;20067;-70
2021/12/10 08:02:54;;;;;;;18.15;12.13;;;3.00;99.90;;;;;;5112885;27;20723;-70
2021/12/10 08:05:22;;;;;;;15.80;12.45;;;3.00;99.90;;;;;;5126190;28;20043;-70
2021/12/10 08:07:49;;;;;;;;;;;3.00;99.90;;;;;;5125332;28;20557;-70
2021/12/10 08:10:15;;;;;;;16.60;12.70;;;3.00;99.90;;;;;;5124422;27;19920;-70
2021/12/10 08:12:44;;;;;;;16.92;12.38;;;2.90;99.90;;;;;;5126624;27;20039;-70
2021/12/10 08:15:10;;;;;;;16.17;12.15;;;3.00;99.90;;;;;;5127183;27;20055;-71
2021/12/10 08:17:37;;;;;;;16.08;12.27;;;3.00;99.90;;;;;;5124174;28;20042;-70
2021/12/10 08:20:07;;;;;;;16.10;12.43;;;3.00;99.90;;;;;;5112420;28;20047;-70
2021/12/10 08:22:33;;;;;;;16.65;13.10;;;3.00;99.90;;;;;;5125665;27;20058;-70
2021/12/10 08:24:59;;;;;;;15.32;12.43;;;3.10;99.90;;;;;;5125612;27;20039;-71
2021/12/10 08:27:25;;;;;;;16.88;12.73;;;3.10;99.90;;;;;;5126897;27;20083;-70
2021/12/10 08:29:51;;;;;;;14.90;12.05;;;3.10;99.90;;;;;;5123772;27;20525;-73
2021/12/10 08:32:20;;;;;;;15.63;12.00;;;3.10;99.90;;;;;;5118968;27;20141;-75
2021/12/10 08:34:49;;;;;;;15.13;12.15;;;3.20;99.90;;;;;;5122470;27;20046;-73
2021/12/10 08:37:16;;;;;;;16.25;12.27;;;3.20;99.90;;;;;;5116783;27;20135;-73
2021/12/10 08:39:42;;;;;;;18.23;12.18;;;3.20;99.90;;;;;;5111901;28;20383;-73
2021/12/10 08:42:08;;;;;;;18.63;12.35;;;3.20;99.90;;;;;;5111120;28;20130;-74
2021/12/10 08:44:35;;;;;;;15.27;12.48;;;3.20;99.90;;;;;;5110985;28;20058;-72
2021/12/10 08:47:01;;;;;;;16.15;12.00;;;3.30;99.90;;;;;;5119437;27;20039;-72
2021/12/10 08:49:28;;;;;;;15.40;11.60;;;3.30;99.90;;;;;;5125883;27;20035;-72
2021/12/10 08:51:56;;;;;;;14.05;11.27;;;3.30;99.90;;;;;;5152146;27;20047;-73
2021/12/10 08:54:26;;;;;;;15.73;11.05;;;3.40;99.90;;;;;;5112270;27;20550;-73
2021/12/10 08:56:52;;;;;;;16.55;12.07;;;3.40;99.90;;;;;;5114889;27;20443;-73
2021/12/10 08:59:21;;;;;;;17.10;11.18;;;3.40;99.90;;;;;;5125143;27;20045;-72
2021/12/10 09:01:49;;;;;;;16.33;11.15;;;3.50;99.90;;;;;;5118352;27;20142;-75
2021/12/10 09:04:15;;;;;;;;;;;3.40;99.90;;;;;;5128155;27;20407;-73
2021/12/10 09:06:48;;;;;;;14.90;11.13;;;3.50;99.90;;;;;;5125632;27;19920;-73
2021/12/10 09:09:15;;;;;;;15.73;11.23;;;3.50;99.90;;;;;;5130171;27;20061;-73
2021/12/10 09:11:48;;;;;;;15.93;11.38;;;3.50;99.90;;;;;;5130131;27;20091;-73
2021/12/10 09:14:15;;;;;;;13.98;10.82;;;3.50;99.90;;;;;;5127226;27;20035;-74
2021/12/10 09:16:41;;;;;;;14.30;11.13;;;3.50;99.90;;;;;;5124866;27;20035;-74
2021/12/10 09:19:12;;;;;;;15.25;11.38;;;3.50;99.90;;;;;;5129830;27;20043;-74
2021/12/10 09:21:39;;;;;;;14.45;10.57;;;3.50;99.90;;;;;;5123679;27;20039;-74
2021/12/10 09:24:06;;;;;;;14.13;11.13;;;3.50;99.90;;;;;;5129899;27;20043;-72
2021/12/10 09:26:34;;;;;;;;;;;3.60;99.90;;;;;;5128077;27;20122;-72
2021/12/10 09:29:02;;;;;;;12.65;11.07;;;3.50;99.90;;;;;;5125107;27;19920;-73
2021/12/10 09:31:28;;;;;;;13.25;10.88;;;3.60;99.90;;;;;;5111384;27;20067;-72
2021/12/10 09:33:56;;;;;;;14.40;10.60;;;3.50;99.90;;;;;;5125316;27;20043;-71
2021/12/10 09:36:22;;;;;;;;;;;3.60;99.90;;;;;;5126877;27;20039;-72
2021/12/10 09:38:48;;;;;;;11.93;9.88;;;3.60;99.90;;;;;;5126340;27;20297;-73
2021/12/10 09:41:14;;;;;;;16.48;11.10;;;3.70;99.90;;;;;;5127606;27;20100;-73
2021/12/10 09:43:41;;;;;;;17.08;10.25;;;3.70;99.90;;;;;;5122310;27;20046;-75
2021/12/10 09:46:09;;;;;;;15.18;9.98;;;3.80;99.90;;;;;;5125712;27;20039;-73
2021/12/10 09:48:35;;;;;;;;;;;3.70;99.90;;;;;;5120043;27;20106;-72
2021/12/10 09:51:17;;;;;;;15.27;10.70;;;3.80;99.90;;;;;;5117394;27;19926;-72
2021/12/10 09:53:46;;;;;;;14.75;10.10;;;3.80;99.90;;;;;;5126031;27;20184;-72
2021/12/10 09:56:14;;;;;;;11.30;10.05;;;3.80;99.90;;;;;;5117959;27;20043;-73
2021/12/10 09:58:40;;;;;;;12.13;9.88;;;3.80;99.90;;;;;;5116031;27;20070;-73
2021/12/10 10:01:37;;;;;;;15.00;10.50;;;3.80;99.90;;;;;;5124205;27;20381;-73
2021/12/10 10:04:04;;;;;;;14.35;10.40;;;3.90;99.90;;;;;;5108949;27;20063;-73
2021/12/10 10:06:34;;;;;;;12.48;9.63;;;3.90;99.90;;;;;;5112360;27;20058;-73
2021/12/10 10:09:00;;;;;;;12.25;8.93;;;3.90;99.90;;;;;;5115845;27;20067;-72
2021/12/10 10:11:31;;;;;;;11.40;9.25;;;4.00;99.90;;;;;;5143702;27;20051;-74
2021/12/10 10:13:57;;;;;;;14.15;9.20;;;4.00;99.90;;;;;;5124184;27;20038;-73
2021/12/10 10:16:26;;;;;;;11.82;8.85;;;4.00;99.90;;;;;;5118904;27;20075;-72
2021/12/10 10:18:52;;;;;;;10.55;8.60;;;4.10;99.90;;;;;;5122030;27;20118;-72
2021/12/10 10:21:26;;;;;;;11.95;9.05;;;4.10;99.90;;;;;;5123579;27;20164;-74
2021/12/10 10:23:53;;;;;;;12.55;8.82;;;4.20;99.90;;;;;;5120951;27;20043;-73
2021/12/10 10:26:25;;;;;;;10.90;7.80;;;4.20;99.90;;;;;;5129356;27;20096;-73
2021/12/10 10:28:52;;;;;;;11.02;7.65;;;4.30;99.90;;;;;;5128266;27;20035;-75
2021/12/10 10:31:22;;;;;;;11.48;8.18;;;4.30;99.90;;;;;;5128578;27;20053;-74
2021/12/10 10:33:53;;;;;;;11.55;7.82;;;4.40;99.90;;;;;;5123970;27;20493;-77
2021/12/10 10:36:23;;;;;;;11.40;7.93;;;4.40;99.90;;;;;;5125539;27;20077;-76
2021/12/10 10:38:55;;;;;;;10.35;7.10;;;4.50;99.90;;;;;;5134837;27;20047;-73
2021/12/10 10:41:24;;;;;;;11.02;7.20;;;4.50;99.80;;;;;;5117374;27;20044;-73
2021/12/10 10:43:50;;;;;;;11.48;7.72;;;4.60;99.70;;;;;;5120517;27;20135;-72
2021/12/10 10:46:16;;;;;;;11.63;7.50;;;4.60;99.50;;;;;;5124078;27;20058;-73
2021/12/10 10:48:43;;;;;;;9.10;6.93;;;4.60;99.30;;;;;;5110001;27;20052;-73
2021/12/10 10:51:16;;;;;;;;;;;4.60;99.10;;;;;;5125029;27;20127;-72
2021/12/10 10:53:48;;;;;;;11.48;6.50;;;4.60;98.80;;;;;;5107218;28;19920;-73
2021/12/10 10:56:29;;;;;;;8.32;6.57;;;4.70;99.20;;;;;;5110532;27;20115;-73
2021/12/10 10:59:01;;;;;;;10.43;6.40;;;4.70;99.00;;;;;;5136246;27;20047;-72
2021/12/10 11:01:57;;;;;;;9.02;6.28;;;4.70;98.80;;;;;;5120163;27;20043;-73
2021/12/10 11:04:28;;;;;;;10.60;6.25;;;4.70;98.60;;;;;;5127171;27;20099;-72
2021/12/10 11:07:12;;;;;;;13.23;6.60;;;4.80;98.60;;;;;;5119442;27;20067;-73
2021/12/10 11:09:54;;;;;;;9.95;6.30;;;4.80;98.80;;;;;;5110545;27;20040;-72
2021/12/10 11:12:26;;;;;;;11.75;6.18;;;4.90;98.40;;;;;;5128072;27;20052;-72
2021/12/10 11:14:54;;;;;;;11.10;5.97;;;4.90;98.50;;;;;;5124801;27;20255;-72
2021/12/10 11:17:33;;;;;;;8.90;5.68;;;4.90;98.30;;;;;;5128762;27;20053;-74
2021/12/10 11:20:18;;;;;;;13.68;6.55;;;5.00;98.00;;;;;;5146068;27;20088;-72
2021/12/10 11:22:50;;;;;;;10.82;6.00;;;5.00;97.80;;;;;;5117272;27;20031;-72
2021/12/10 11:25:25;;;;;;;11.90;5.45;;;5.00;97.80;;;;;;5109462;27;20045;-73
2021/12/10 11:27:52;;;;;;;9.95;5.55;;;5.00;98.00;;;;;;5123634;27;20044;-74
2021/12/10 11:30:26;;;;;;;9.18;5.65;;;5.10;97.60;;;;;;5112190;27;20519;-74
2021/12/10 11:33:23;;;;;;;9.55;5.57;;;5.10;97.40;;;;;;5120284;27;20525;-72
2021/12/10 11:35:55;;;;;;;11.60;5.68;;;5.10;97.30;;;;;;5095315;28;20052;-74
2021/12/10 11:38:32;;;;;;;9.40;5.53;;;5.10;97.40;;;;;;5119740;27;20031;-77
2021/12/10 11:41:00;;;;;;;12.88;6.03;;;5.20;97.30;;;;;;5126722;27;20079;-73
2021/12/10 11:49:23;;;;;;;12.82;5.43;;;5.20;96.70;;;;;;5126810;27;20237;-74
2021/12/10 11:51:54;;;;;;;9.35;4.68;;;5.20;96.60;;;;;;5118304;27;20054;-77
2021/12/10 11:54:54;;;;;;;9.73;5.22;;;5.10;96.60;;;;;;5126834;28;20637;-73
2021/12/10 11:57:25;;;;;;;10.18;5.25;;;5.20;96.70;;;;;;5127918;27;20694;-73
2021/12/10 11:59:55;;;;;;;9.88;5.68;;;5.20;96.70;;;;;;5126051;27;20043;-73
2021/12/10 12:02:30;;;;;;;8.82;4.85;;;5.30;96.60;;;;;;5128703;27;20050;-73
2021/12/10 12:05:09;;;;;;;9.77;5.07;;;5.30;96.40;;;;;;5110161;27;20391;-74
2021/12/10 12:07:40;;;;;;;10.75;4.90;;;5.30;96.30;;;;;;5111960;27;20039;-73
2021/12/10 12:10:05;;;;;;;11.13;4.72;;;5.30;96.00;;;;;;5146484;27;20048;-73
2021/12/10 12:12:42;;;;;;;10.18;4.82;;;5.40;95.90;;;;;;5111259;27;20092;-73
2021/12/10 12:15:13;;;;;;;12.80;5.57;;;5.40;95.90;;;;;;5113119;27;20043;-74
2021/12/10 12:17:45;;;;;;;9.18;4.90;;;5.40;95.90;;;;;;5111181;27;20460;-72
2021/12/10 12:20:40;;;;;;;10.15;4.45;;;5.40;95.70;;;;;;5130179;27;20123;-73
2021/12/10 12:26:19;;;;;;;9.57;5.05;;;5.40;95.40;;;;;;5130690;27;20044;-75
2021/12/10 12:28:46;;;;;;;10.55;4.30;;;5.50;95.50;;;;;;5129831;27;20043;-72
2021/12/10 12:31:22;;;;;;;7.60;4.60;;;5.50;95.40;;;;;;5127893;27;20047;-73
2021/12/10 12:34:14;;;;;;;11.30;5.00;;;5.50;95.20;;;;;;5126330;27;20460;-72
2021/12/10 12:37:00;;;;;;;8.82;4.57;;;5.50;95.20;;;;;;5119305;27;20039;-73
2021/12/10 12:39:38;;;;;;;10.10;5.35;;;5.50;95.30;;;;;;5122132;27;20707;-73
2021/12/10 12:42:08;;;;;;;9.88;5.15;;;5.60;95.40;;;;;;5123685;27;20047;-76
2021/12/10 12:44:40;;;;;;;10.25;5.35;;;5.60;95.40;;;;;;5127114;27;20668;-74
2021/12/10 12:47:12;;;;;;;11.60;5.30;;;5.60;95.20;;;;;;5117516;27;20065;-73
2021/12/10 12:49:38;;;;;;;11.27;5.00;;;5.60;95.20;;;;;;5130288;27;20092;-73
2021/12/10 12:52:11;;;;;;;9.98;5.25;;;5.60;95.00;;;;;;5111742;27;20051;-73
2021/12/10 12:54:41;;;;;;;10.73;4.90;;;5.60;95.10;;;;;;5113380;27;20086;-73
2021/12/10 12:57:10;;;;;;;10.52;5.10;;;5.50;95.00;;;;;;5115847;27;20042;-72
2021/12/10 12:59:36;;;;;;;8.50;5.22;;;5.50;95.00;;;;;;5119422;27;20393;-79
2021/12/10 13:02:06;;;;;;;11.10;5.00;;;5.50;94.90;;;;;;5121483;27;20031;-73
2021/12/10 13:04:39;;;;;;;9.20;5.00;;;5.50;94.70;;;;;;5126832;27;20051;-73
2021/12/10 13:07:21;;;;;;;11.73;5.30;;;5.50;94.70;;;;;;5114246;27;20572;-73